Aviation Digital Data Service (ADDS)

Output produced by METARs form (1842 UTC 18 June 2019)
found at http://www.aviationweather.gov/metar/data/
 
SEAM 181800Z 20006KT 9999 FEW003 BKN015 BKN100 16/10 Q1030
SEGS 181800Z 15012KT 9999 BKN020 28/20 Q1010 A2985
SECO 181800Z 15003KT 9999 BKN020 BKN100 26/23 Q1016 RMK A3001
SECU 181800Z 08006KT 9999 VCSH BKN030 OVC070 18/11 Q1027
SEST 181800Z 18016KT 9999 FEW016 SCT080 26/21 Q1008 RMK A2979
SEGU 181800Z 14006KT 9999 BKN026 SCT100 29/22 Q1009 NOSIG RMK A2979
TAF COR SEGU 181640Z 1818/1918 22004KT 9999 SCT026 SCT100 
     BECMG 1822/1823 BKN026 BKN100 
     TEMPO 1901/1903 CAVOK 
     FM190500 23010KT 9999 BKN023 SCT100 
     TEMPO 1909/1911 FEW010 BKN026 BKN090 
     FM1200Z 20003KT 9999 SCT030 BKN100 TX32/1820Z TN23/1909Z
       
SELT 181800Z 18019KT 9999 BKN030 SCT100 14/08 Q1030
TAF COR SELT 181640Z 1818/1918 16018KT 9999 BKN030 
     BECMG 1903/1904 19008KT FEW010 SCT030 
     FM191300 17014KT 9999 SCT030 TX16/1819Z TN08/1911Z
       
SEMC 181800Z 23002KT 2000 -RADZ SCT010 BKN026 OVC080 19/18 Q1021 RMK A3017
SEMT 181800Z 24005KT 9999 FEW020 SCT023 29/23 Q1009 RMK A2982
TAF COR SEMT 181640Z 1818/1918 22010KT 9999 SCT023 SCT100 
     BECMG 1900/1901 20005KT OVC020 
     FM191400 17010KT 9999 BKN023 TX29/1819Z TN23/1910Z
       
SENL 181800Z 02003KT 9999 VCSH SCT030 BKN100 24/23 Q1016 RMK A3002
SEQM 181800Z 19013KT 9999 BKN040 SCT080 23/05 Q1024 NOSIG RMK A3024
SEQM 181640Z 1818/1918 21006KT 9999 BKN033 BKN100 
     BECMG 1823/1824 VRB03KT SCT080 
     FM191400 VRB03KT 9999 SCT033 TX25/1820Z TN11/1911Z
       
SERB 181800Z 05015KT 9999 BKN040 BKN100 16/09 Q1030
SESA 181800Z 26010KT 9999 BKN016 26/22 Q1010
SESM 181800Z 23002KT 9999 FEW023 BKN100 28/18 Q1020 RMK A3014
SETN 181800Z 18003KT 9999 SCT030 OVC040 29/26 Q1009 A2980
SETU 181800Z 12008KT 9999 VCSH BKN020 13/09 Q1032